createdAt,value
2019-02-09T00:02:09.540Z,99579.13
2019-02-09T00:04:40.429Z,99567.00
2019-02-09T00:07:11.575Z,99575.34
2019-02-09T00:09:42.956Z,99563.75
2019-02-09T00:12:13.634Z,99559.01
2019-02-09T00:14:44.857Z,99558.55
2019-02-09T00:17:15.659Z,99553.70
2019-02-09T00:19:46.645Z,99549.33
2019-02-09T00:22:17.870Z,99548.32
2019-02-09T00:24:48.502Z,99543.13
2019-02-09T00:27:19.493Z,99539.33
2019-02-09T00:29:50.229Z,99533.95
2019-02-09T00:32:20.692Z,99535.90
2019-02-09T00:34:52.114Z,99531.50
2019-02-09T00:37:22.627Z,99525.02
2019-02-09T00:39:53.540Z,99525.30
2019-02-09T00:42:24.712Z,99523.47
2019-02-09T00:44:57.264Z,99512.95
2019-02-09T00:47:29.675Z,99514.70
2019-02-09T00:50:00.771Z,99512.19
2019-02-09T00:52:34.391Z,99507.25
2019-02-09T00:55:06.551Z,99506.39
2019-02-09T00:57:37.480Z,99504.56
2019-02-09T01:00:13.957Z,99500.17
2019-02-09T01:02:46.808Z,99496.31
2019-02-09T01:05:21.073Z,99492.31
2019-02-09T01:07:52.754Z,99493.94
2019-02-09T01:10:24.418Z,99483.03
2019-02-09T01:12:54.790Z,99487.11
2019-02-09T01:15:27.904Z,99484.58
2019-02-09T01:17:58.848Z,99480.34
2019-02-09T01:20:30.398Z,99484.29
2019-02-09T01:23:01.182Z,99482.27
2019-02-09T01:25:31.879Z,99476.92
2019-02-09T01:28:02.832Z,99477.69
2019-02-09T01:30:33.968Z,99479.49
2019-02-09T01:33:05.048Z,99472.27
2019-02-09T01:35:35.930Z,99471.07
2019-02-09T01:38:06.925Z,99467.33
2019-02-09T01:40:37.685Z,99466.91
2019-02-09T01:43:08.973Z,99467.09
2019-02-09T01:45:41.173Z,99454.52
2019-02-09T01:48:12.994Z,99451.22
2019-02-09T01:50:43.955Z,99450.30
2019-02-09T01:53:16.060Z,99442.33
2019-02-09T01:55:46.960Z,99433.16
2019-02-09T01:58:19.942Z,99430.19
2019-02-09T02:00:50.992Z,99429.31
2019-02-09T02:03:22.124Z,99433.59
2019-02-09T02:05:52.939Z,99425.48
2019-02-09T02:08:24.059Z,99423.69
2019-02-09T02:10:55.062Z,99417.70
2019-02-09T02:13:26.286Z,99412.76
2019-02-09T02:15:57.125Z,99409.87
2019-02-09T02:18:28.178Z,99409.23
2019-02-09T02:21:01.057Z,99405.55
2019-02-09T02:23:32.924Z,99406.09
2019-02-09T02:26:03.928Z,99394.85
2019-02-09T02:28:34.783Z,99396.66
2019-02-09T02:31:05.207Z,99393.77
2019-02-09T02:33:36.221Z,99402.30
2019-02-09T02:36:07.233Z,99396.98
2019-02-09T02:38:37.744Z,99393.61
2019-02-09T02:41:09.655Z,99395.78
2019-02-09T02:43:40.582Z,99398.77
2019-02-09T02:46:11.866Z,99401.69
2019-02-09T02:48:42.762Z,99399.17
2019-02-09T02:51:13.335Z,99392.17
2019-02-09T02:53:44.299Z,99386.73
2019-02-09T02:56:15.316Z,99375.98
2019-02-09T02:58:46.690Z,99369.27
2019-02-09T03:01:17.723Z,99373.83
2019-02-09T03:03:48.482Z,99388.09
2019-02-09T03:06:19.308Z,99384.39
2019-02-09T03:08:50.242Z,99391.44
2019-02-09T03:11:21.225Z,99384.27
2019-02-09T03:13:52.138Z,99384.20
2019-02-09T03:16:23.143Z,99384.22
2019-02-09T03:18:54.160Z,99376.13
2019-02-09T03:21:25.112Z,99373.05
2019-02-09T03:23:55.550Z,99363.88
2019-02-09T03:26:26.390Z,99357.95
2019-02-09T03:28:57.354Z,99347.91
2019-02-09T03:31:28.483Z,99346.65
2019-02-09T03:33:59.461Z,99348.77
2019-02-09T03:36:30.487Z,99337.77
2019-02-09T03:39:01.425Z,99341.91
2019-02-09T03:41:32.616Z,99347.77
2019-02-09T03:44:03.470Z,99345.72
2019-02-09T03:46:34.413Z,99339.89
2019-02-09T03:49:05.792Z,99353.27
2019-02-09T03:51:36.575Z,99349.22
2019-02-09T03:54:07.470Z,99343.73
2019-02-09T03:56:37.941Z,99337.84
2019-02-09T03:59:08.600Z,99341.02
2019-02-09T04:01:40.359Z,99343.94
2019-02-09T04:04:11.226Z,99344.25
2019-02-09T04:06:42.152Z,99337.89
2019-02-09T04:09:12.549Z,99340.81
2019-02-09T04:11:43.982Z,99343.34
2019-02-09T04:14:14.695Z,99337.44
2019-02-09T04:16:45.734Z,99334.54
2019-02-09T04:19:16.690Z,99345.58
2019-02-09T04:21:47.646Z,99348.20
2019-02-09T04:24:18.454Z,99341.84
2019-02-09T04:26:49.432Z,99339.69
2019-02-09T04:29:20.287Z,99358.52
2019-02-09T04:31:50.674Z,99360.61
2019-02-09T04:34:21.791Z,99347.78
2019-02-09T04:36:53.134Z,99330.59
2019-02-09T04:39:23.731Z,99318.97
2019-02-09T04:41:54.649Z,99321.10
2019-02-09T04:44:25.985Z,99321.05
2019-02-09T04:46:56.754Z,99334.09
2019-02-09T04:49:27.732Z,99320.36
2019-02-09T04:51:58.829Z,99315.07
2019-02-09T04:54:29.814Z,99321.66
2019-02-09T04:57:00.924Z,99310.23
2019-02-09T04:59:33.002Z,99308.97
2019-02-09T05:02:05.864Z,99321.10
2019-02-09T05:04:36.809Z,99316.45
2019-02-09T05:07:07.836Z,99317.46
2019-02-09T05:09:38.222Z,99331.69
2019-02-09T05:12:09.870Z,99334.90
2019-02-09T05:14:40.993Z,99321.23
2019-02-09T05:17:13.948Z,99315.36
2019-02-09T05:19:44.793Z,99321.64
2019-02-09T05:22:16.963Z,99328.34
2019-02-09T05:24:49.859Z,99327.01
2019-02-09T05:27:22.049Z,99316.01
2019-02-09T05:29:53.942Z,99315.94
2019-02-09T05:32:24.942Z,99322.21
2019-02-09T05:34:56.001Z,99326.39
2019-02-09T05:37:28.027Z,99324.23
2019-02-09T05:40:00.909Z,99322.41
2019-02-09T05:42:31.308Z,99322.28
2019-02-09T05:45:03.085Z,99329.38
2019-02-09T05:47:34.085Z,99325.56
2019-02-09T05:50:05.898Z,99331.33
2019-02-09T05:52:37.992Z,99335.05
2019-02-09T05:55:10.167Z,99336.74
2019-02-09T05:57:40.999Z,99340.58
2019-02-09T06:00:32.138Z,99334.78
2019-02-09T06:03:04.080Z,99340.34
2019-02-09T06:05:35.293Z,99338.72
2019-02-09T06:08:06.223Z,99348.83
2019-02-09T06:10:37.889Z,99360.55
2019-02-09T06:13:08.276Z,99351.02
2019-02-09T06:15:38.668Z,99359.34
2019-02-09T06:18:09.100Z,99368.16
2019-02-09T06:20:41.279Z,99367.37
2019-02-09T06:23:14.112Z,99367.39
2019-02-09T06:25:47.218Z,99370.76
2019-02-09T06:28:19.213Z,99370.56
2019-02-09T06:30:50.257Z,99371.84
2019-02-09T06:33:21.177Z,99368.05
2019-02-09T06:35:53.400Z,99360.52
2019-02-09T06:38:25.312Z,99361.83
2019-02-09T06:40:57.287Z,99361.39
2019-02-09T06:43:28.198Z,99360.18
2019-02-09T06:45:59.316Z,99364.05
2019-02-09T06:48:30.748Z,99363.25
2019-02-09T06:51:02.264Z,99361.27
2019-02-09T06:53:32.675Z,99358.00
2019-02-09T06:56:03.334Z,99360.26
2019-02-09T06:58:34.314Z,99359.19
2019-02-09T07:01:05.569Z,99366.91
2019-02-09T07:03:36.187Z,99368.68
2019-02-09T07:06:07.316Z,99379.33
2019-02-09T07:08:37.969Z,99384.11
2019-02-09T07:11:08.484Z,99381.31
2019-02-09T07:13:38.861Z,99380.12
2019-02-09T07:16:11.257Z,99379.39
2019-02-09T07:18:41.720Z,99370.69
2019-02-09T07:21:13.343Z,99370.80
2019-02-09T07:23:44.291Z,99373.44
2019-02-09T07:26:15.311Z,99369.72
2019-02-09T07:28:46.281Z,99366.50
2019-02-09T07:31:18.750Z,99369.94
2019-02-09T07:33:51.624Z,99371.02
2019-02-09T07:36:24.642Z,99370.62
2019-02-09T07:38:55.507Z,99372.69
2019-02-09T07:41:26.486Z,99371.02
2019-02-09T07:43:57.666Z,99375.30
2019-02-09T07:46:28.578Z,99374.45
2019-02-09T07:48:59.439Z,99374.86
2019-02-09T07:51:30.652Z,99373.64
2019-02-09T07:54:01.554Z,99375.83
2019-02-09T07:56:32.524Z,99375.41
2019-02-09T07:59:04.825Z,99377.55
2019-02-09T08:01:37.725Z,99387.78
2019-02-09T08:04:08.801Z,99387.38
2019-02-09T08:06:41.544Z,99382.23
2019-02-09T08:09:13.788Z,99381.48
2019-02-09T08:11:44.564Z,99377.85
2019-02-09T08:14:15.729Z,99384.75
2019-02-09T08:16:47.608Z,99385.45
2019-02-09T08:19:20.674Z,99387.05
2019-02-09T08:21:51.792Z,99388.11
2019-02-09T08:24:24.326Z,99383.34
2019-02-09T08:26:56.654Z,99395.05
2019-02-09T08:29:27.831Z,99395.05
2019-02-09T08:31:58.753Z,99389.00
2019-02-09T08:34:29.807Z,99389.00
2019-02-09T08:37:00.758Z,99383.63
2019-02-09T08:39:31.785Z,99390.16
2019-02-09T08:42:03.718Z,99393.13
2019-02-09T08:44:35.706Z,99393.13
2019-02-09T08:47:07.950Z,99404.22
2019-02-09T08:49:38.341Z,99404.22
2019-02-09T08:52:09.760Z,99406.28
2019-02-09T08:54:41.900Z,99409.77
2019-02-09T08:57:14.902Z,99413.80
2019-02-09T08:59:48.008Z,99413.80
2019-02-09T09:02:20.830Z,99418.54
2019-02-09T09:04:53.418Z,99425.83
2019-02-09T09:07:24.002Z,99438.63
2019-02-09T09:09:55.260Z,99437.81
2019-02-09T09:12:25.965Z,99433.20
2019-02-09T09:14:57.086Z,99437.44
2019-02-09T09:17:28.205Z,99442.55
2019-02-09T09:19:58.990Z,99435.76
2019-02-09T09:22:30.035Z,99433.23
2019-02-09T09:25:01.098Z,99433.70
2019-02-09T09:27:32.150Z,99443.84
2019-02-09T09:30:03.218Z,99425.27
2019-02-09T09:32:34.072Z,99410.06
2019-02-09T09:35:05.321Z,99410.53
2019-02-09T09:37:36.053Z,99419.41
2019-02-09T09:40:09.497Z,99427.05
2019-02-09T09:42:41.938Z,99434.23
2019-02-09T09:45:17.288Z,99441.00
2019-02-09T09:47:48.115Z,99447.33
2019-02-09T09:50:19.829Z,99436.73
2019-02-09T09:52:52.114Z,99439.30
2019-02-09T09:55:23.133Z,99443.10
2019-02-09T09:57:53.494Z,99457.95
2019-02-09T10:00:26.300Z,99458.40
2019-02-09T10:02:57.847Z,99473.27
2019-02-09T10:05:28.215Z,99477.50
2019-02-09T10:07:59.237Z,99460.98
2019-02-09T10:10:30.173Z,99479.64
2019-02-09T10:13:01.297Z,99487.69
2019-02-09T10:15:32.275Z,99483.03
2019-02-09T10:18:03.288Z,99520.73
2019-02-09T10:20:34.235Z,99505.89
2019-02-09T10:23:05.279Z,99533.42
2019-02-09T10:25:36.646Z,99551.19
2019-02-09T10:28:07.347Z,99539.30
2019-02-09T10:30:38.384Z,99539.69
2019-02-09T10:33:09.408Z,99538.42
2019-02-09T10:35:41.328Z,99546.49
2019-02-09T10:38:13.760Z,99550.69
2019-02-09T10:40:44.498Z,99560.38
2019-02-09T10:43:15.434Z,99579.39
2019-02-09T10:45:46.847Z,99552.53
2019-02-09T10:48:17.419Z,99563.09
2019-02-09T10:50:48.897Z,99553.69
2019-02-09T10:53:19.322Z,99546.43
2019-02-09T10:55:50.459Z,99550.31
2019-02-09T10:58:21.387Z,99546.95
2019-02-09T11:00:59.177Z,99548.00
2019-02-09T11:03:29.536Z,99548.91
2019-02-09T11:06:00.357Z,99544.70
2019-02-09T11:08:31.551Z,99537.14
2019-02-09T11:11:02.654Z,99545.23
2019-02-09T11:13:33.374Z,99531.67
2019-02-09T11:16:04.454Z,99536.79
2019-02-09T11:18:36.393Z,99523.20
2019-02-09T11:21:08.416Z,99523.62
2019-02-09T11:23:38.869Z,99519.31
2019-02-09T11:26:11.571Z,99519.31
2019-02-09T11:28:44.522Z,99517.58
2019-02-09T11:31:15.534Z,99518.83
2019-02-09T11:33:47.451Z,99521.39
2019-02-09T11:36:19.596Z,99524.19
2019-02-09T11:38:50.969Z,99518.11
2019-02-09T11:41:23.226Z,99514.48
2019-02-09T11:43:54.044Z,99497.89
2019-02-09T11:46:25.754Z,99498.70
2019-02-09T11:48:56.150Z,99507.17
2019-02-09T11:51:28.790Z,99510.94
2019-02-09T11:54:00.748Z,99491.40
2019-02-09T11:56:31.649Z,99476.78
2019-02-09T11:59:02.583Z,99476.36
2019-02-09T12:01:33.628Z,99464.14
2019-02-09T12:04:05.025Z,99473.30
2019-02-09T12:06:35.630Z,99470.85
2019-02-09T12:09:09.472Z,99467.16
2019-02-09T12:11:41.771Z,99452.09
2019-02-09T12:14:17.288Z,99455.64
2019-02-09T12:16:47.732Z,99447.48
2019-02-09T12:19:19.829Z,99449.14
2019-02-09T12:21:50.887Z,99448.29
2019-02-09T12:24:21.832Z,99448.36
2019-02-09T12:26:54.827Z,99460.59
2019-02-09T12:29:26.447Z,99466.13
2019-02-09T12:31:56.899Z,99462.66
2019-02-09T12:34:27.916Z,99454.30
2019-02-09T12:36:59.189Z,99464.79
2019-02-09T12:39:30.225Z,99472.69
2019-02-09T12:42:00.956Z,99481.86
2019-02-09T12:44:31.983Z,99476.36
2019-02-09T12:47:02.900Z,99479.00
2019-02-09T12:49:35.519Z,99463.67
2019-02-09T12:52:08.068Z,99467.15
2019-02-09T12:54:38.522Z,99466.80
2019-02-09T12:57:09.875Z,99457.07
2019-02-09T12:59:42.411Z,99468.73
2019-02-09T13:02:15.074Z,99459.66
2019-02-09T13:04:47.934Z,99464.48
2019-02-09T13:07:20.132Z,99473.47
2019-02-09T13:09:50.622Z,99467.70
2019-02-09T13:12:21.116Z,99457.63
2019-02-09T13:14:53.796Z,99464.19
2019-02-09T13:17:25.099Z,99471.89
2019-02-09T13:19:57.115Z,99468.12
2019-02-09T13:22:29.234Z,99468.56
2019-02-09T13:25:00.101Z,99461.28
2019-02-09T13:27:32.997Z,99473.16
2019-02-09T13:30:07.447Z,99469.30
2019-02-09T13:32:39.284Z,99472.64
2019-02-09T13:35:12.344Z,99470.77
2019-02-09T13:37:45.027Z,99472.75
2019-02-09T13:40:17.575Z,99468.33
2019-02-09T13:42:48.089Z,99463.84
2019-02-09T13:45:23.449Z,99454.27
2019-02-09T13:47:54.101Z,99450.76
2019-02-09T13:50:26.847Z,99435.92
2019-02-09T13:52:57.230Z,99440.07
2019-02-09T13:55:28.277Z,99436.61
2019-02-09T13:57:59.205Z,99424.65
2019-02-09T14:00:30.380Z,99413.63
2019-02-09T14:03:01.331Z,99412.90
2019-02-09T14:05:32.481Z,99403.80
2019-02-09T14:08:03.350Z,99405.96
2019-02-09T14:10:34.234Z,99413.23
2019-02-09T14:13:05.377Z,99417.84
2019-02-09T14:15:36.363Z,99426.98
2019-02-09T14:18:09.106Z,99431.97
2019-02-09T14:20:39.550Z,99436.77
2019-02-09T14:23:12.372Z,99437.66
2019-02-09T14:25:43.369Z,99437.66
2019-02-09T14:28:14.271Z,99429.09
2019-02-09T14:30:45.458Z,99433.91
2019-02-09T14:33:16.343Z,99441.53
2019-02-09T14:35:47.421Z,99434.73
2019-02-09T14:38:18.521Z,99448.05
2019-02-09T14:40:49.458Z,99442.16
2019-02-09T14:43:20.356Z,99446.84
2019-02-09T14:45:51.490Z,99450.20
2019-02-09T14:48:22.405Z,99449.77
2019-02-09T14:50:53.379Z,99452.42
2019-02-09T14:53:24.430Z,99462.47
2019-02-09T14:55:55.551Z,99472.16
2019-02-09T14:58:28.518Z,99464.95
2019-02-09T15:00:59.518Z,99478.80
2019-02-09T15:03:30.949Z,99489.73
2019-02-09T15:06:03.427Z,99493.33
2019-02-09T15:08:35.458Z,99501.69
2019-02-09T15:11:06.491Z,99499.37
2019-02-09T15:13:37.592Z,99502.13
2019-02-09T15:16:38.806Z,99517.23
2019-02-09T15:19:09.569Z,99510.96
2019-02-09T15:21:41.578Z,99507.70
2019-02-09T15:24:14.326Z,99506.00
2019-02-09T15:26:45.524Z,99514.13
2019-02-09T15:29:16.623Z,99507.05
2019-02-09T15:31:48.542Z,99515.23
2019-02-09T15:34:21.625Z,99513.52
2019-02-09T15:36:52.554Z,99525.91
2019-02-09T15:39:23.690Z,99537.02
2019-02-09T15:41:54.955Z,99522.64
2019-02-09T15:44:25.796Z,99524.38
2019-02-09T15:46:56.748Z,99529.92
2019-02-09T15:49:27.966Z,99529.91
2019-02-09T15:51:58.745Z,99535.06
2019-02-09T15:54:29.615Z,99526.97
2019-02-09T15:57:00.667Z,99537.20
2019-02-09T15:59:31.553Z,99533.41
2019-02-09T16:02:04.276Z,99534.69
2019-02-09T16:04:36.790Z,99543.19
2019-02-09T16:07:07.770Z,99540.64
2019-02-09T16:09:38.706Z,99525.39
2019-02-09T16:12:09.700Z,99516.47
2019-02-09T16:14:41.790Z,99524.98
2019-02-09T16:17:15.056Z,99527.94
2019-02-09T16:19:46.233Z,99524.12
2019-02-09T16:22:18.831Z,99520.31
2019-02-09T16:24:56.083Z,99515.23
2019-02-09T16:27:26.928Z,99531.72
2019-02-09T16:29:57.892Z,99526.64
2019-02-09T16:32:28.783Z,99532.12
2019-02-09T16:35:01.447Z,99546.91
2019-02-09T16:37:33.889Z,99545.22
2019-02-09T16:40:06.533Z,99545.19
2019-02-09T16:42:38.863Z,99554.05
2019-02-09T16:45:13.617Z,99551.48
2019-02-09T16:47:44.938Z,99567.56
2019-02-09T16:50:18.713Z,99577.25
2019-02-09T16:52:51.166Z,99571.75
2019-02-09T16:55:23.022Z,99573.45
2019-02-09T16:57:54.004Z,99576.03
2019-02-09T17:00:35.907Z,99568.38
2019-02-09T17:03:09.140Z,99560.74
2019-02-09T17:05:39.667Z,99569.62
2019-02-09T17:08:12.994Z,99567.97
2019-02-09T17:10:43.951Z,99571.39
2019-02-09T17:13:14.872Z,99566.75
2019-02-09T17:15:45.883Z,99563.77
2019-02-09T17:18:16.717Z,99558.22
2019-02-09T17:20:47.740Z,99568.01
2019-02-09T17:23:18.216Z,99562.48
2019-02-09T17:25:49.702Z,99574.28
2019-02-09T17:28:20.814Z,99575.98
2019-02-09T17:30:51.955Z,99574.23
2019-02-09T17:33:22.946Z,99577.15
2019-02-09T17:35:53.917Z,99578.88
2019-02-09T17:38:24.951Z,99586.92
2019-02-09T17:40:55.968Z,99586.89
2019-02-09T17:43:26.975Z,99578.03
2019-02-09T17:46:05.209Z,99577.61
2019-02-09T17:48:38.249Z,99578.41
2019-02-09T17:51:11.159Z,99591.09
2019-02-09T17:53:42.292Z,99583.06
2019-02-09T17:56:14.287Z,99582.62
2019-02-09T17:58:46.290Z,99585.98
2019-02-09T18:01:18.230Z,99588.52
2019-02-09T18:03:49.886Z,99592.38
2019-02-09T18:06:21.230Z,99584.77
2019-02-09T18:08:51.892Z,99597.84
2019-02-09T18:11:22.360Z,99587.67
2019-02-09T18:13:54.078Z,99587.28
2019-02-09T18:16:25.656Z,99598.28
2019-02-09T18:18:58.365Z,99594.89
2019-02-09T18:21:29.405Z,99599.19
2019-02-09T18:24:00.300Z,99600.45
2019-02-09T18:26:30.877Z,99604.66
2019-02-09T18:29:02.393Z,99598.65
2019-02-09T18:31:33.438Z,99597.77
2019-02-09T18:34:04.474Z,99601.13
2019-02-09T18:36:35.532Z,99594.75
2019-02-09T18:39:11.592Z,99600.23
2019-02-09T18:41:42.525Z,99596.00
2019-02-09T18:44:14.535Z,99601.48
2019-02-09T18:46:45.393Z,99603.55
2019-02-09T18:49:17.669Z,99599.32
2019-02-09T18:51:48.514Z,99595.47
2019-02-09T18:54:21.924Z,99596.31
2019-02-09T18:56:52.939Z,99591.63
2019-02-09T18:59:23.490Z,99589.95
2019-02-09T19:01:54.406Z,99594.59
2019-02-09T19:04:25.576Z,99595.44
2019-02-09T19:06:58.457Z,99595.20
2019-02-09T19:09:30.651Z,99601.17
2019-02-09T19:12:01.652Z,99596.49
2019-02-09T19:14:32.678Z,99596.91
2019-02-09T19:17:03.721Z,99599.47
2019-02-09T19:19:34.575Z,99604.55
2019-02-09T19:22:05.664Z,99611.28
2019-02-09T19:24:36.590Z,99611.27
2019-02-09T19:27:07.920Z,99607.58
2019-02-09T19:29:38.471Z,99600.75
2019-02-09T19:32:09.474Z,99613.77
2019-02-09T19:34:39.963Z,99615.02
2019-02-09T19:37:13.209Z,99609.52
2019-02-09T19:39:45.715Z,99607.34
2019-02-09T19:42:16.691Z,99609.84
2019-02-09T19:44:47.722Z,99603.95
2019-02-09T19:47:18.925Z,99608.55
2019-02-09T19:49:51.797Z,99604.77
2019-02-09T19:52:23.657Z,99600.13
2019-02-09T19:54:54.715Z,99602.66
2019-02-09T19:57:25.838Z,99603.90
2019-02-09T19:59:58.723Z,99605.64
2019-02-09T20:02:29.898Z,99606.41
2019-02-09T20:05:00.812Z,99612.33
2019-02-09T20:07:31.860Z,99611.92
2019-02-09T20:10:03.022Z,99623.28
2019-02-09T20:12:34.034Z,99621.98
2019-02-09T20:15:05.703Z,99623.61
2019-02-09T20:17:38.845Z,99626.92
2019-02-09T20:20:10.637Z,99632.81
2019-02-09T20:22:43.187Z,99636.64
2019-02-09T20:25:16.357Z,99636.20
2019-02-09T20:27:48.009Z,99644.28
2019-02-09T20:30:23.681Z,99642.13
2019-02-09T20:32:56.812Z,99641.27
2019-02-09T20:35:29.927Z,99636.55
2019-02-09T20:38:01.054Z,99641.17
2019-02-09T20:40:42.842Z,99640.70
2019-02-09T20:43:16.353Z,99642.83
2019-02-09T20:45:49.181Z,99651.28
2019-02-09T20:48:21.991Z,99639.44
2019-02-09T20:50:53.684Z,99641.12
2019-02-09T20:53:24.780Z,99643.23
2019-02-09T20:55:55.464Z,99627.56
2019-02-09T20:58:26.043Z,99626.32
2019-02-09T21:00:57.126Z,99633.89
2019-02-09T21:03:28.216Z,99628.80
2019-02-09T21:06:00.147Z,99623.38
2019-02-09T21:08:33.083Z,99634.46
2019-02-09T21:11:04.124Z,99634.46
2019-02-09T21:13:37.044Z,99647.13
2019-02-09T21:16:08.215Z,99633.45
2019-02-09T21:18:39.282Z,99638.11
2019-02-09T21:21:10.102Z,99634.37
2019-02-09T21:23:42.236Z,99637.66
2019-02-09T21:26:15.175Z,99630.38
2019-02-09T21:28:48.084Z,99630.38
2019-02-09T21:31:20.203Z,99635.41
2019-02-09T21:33:51.237Z,99631.12
2019-02-09T21:36:24.350Z,99629.41
2019-02-09T21:38:55.137Z,99632.77
2019-02-09T21:41:26.492Z,99630.72
2019-02-09T21:43:57.224Z,99637.94
2019-02-09T21:46:28.634Z,99640.02
2019-02-09T21:48:59.633Z,99642.52
2019-02-09T21:51:30.280Z,99635.81
2019-02-09T21:54:01.614Z,99634.48
2019-02-09T21:56:32.238Z,99622.09
2019-02-09T21:59:02.970Z,99622.09
2019-02-09T22:01:33.390Z,99636.12
2019-02-09T22:04:07.337Z,99609.45
2019-02-09T22:06:38.715Z,99609.45
2019-02-09T22:09:10.303Z,99618.73
2019-02-09T22:11:42.470Z,99618.73
2019-02-09T22:14:14.542Z,99614.86
2019-02-09T22:16:45.478Z,99614.30
2019-02-09T22:19:16.354Z,99612.55
2019-02-09T22:21:47.668Z,99612.55
2019-02-09T22:24:20.012Z,99622.23
2019-02-09T22:26:52.423Z,99622.23
2019-02-09T22:29:25.425Z,99621.37
2019-02-09T22:31:56.554Z,99624.39
2019-02-09T22:34:27.502Z,99612.44
2019-02-09T22:36:58.505Z,99612.47
2019-02-09T22:39:31.100Z,99626.31
2019-02-09T22:42:03.813Z,99613.94
2019-02-09T22:44:34.304Z,99613.94
2019-02-09T22:47:05.120Z,99636.84
2019-02-09T22:49:35.659Z,99636.84
2019-02-09T22:52:06.596Z,99637.66
2019-02-09T22:54:37.571Z,99616.14
2019-02-09T22:57:08.498Z,99629.16
2019-02-09T22:59:39.245Z,99629.16
2019-02-09T23:02:09.809Z,99630.02
2019-02-09T23:05:00.935Z,99618.55
2019-02-09T23:07:35.484Z,99621.36
2019-02-09T23:10:12.162Z,99621.72
2019-02-09T23:12:48.382Z,99640.16
2019-02-09T23:15:14.699Z,99632.02
2019-02-09T23:17:45.581Z,99636.98
2019-02-09T23:20:19.184Z,99634.35
2019-02-09T23:22:50.599Z,99634.35
2019-02-09T23:25:21.656Z,99643.85
2019-02-09T23:27:52.685Z,99643.85
2019-02-09T23:30:23.829Z,99638.48
2019-02-09T23:32:54.815Z,99647.80
2019-02-09T23:35:25.790Z,99647.80
2019-02-09T23:37:56.736Z,99643.84
2019-02-09T23:40:27.913Z,99642.41
2019-02-09T23:42:58.780Z,99645.64
2019-02-09T23:45:29.878Z,99650.67
2019-02-09T23:48:00.946Z,99649.88
2019-02-09T23:50:33.910Z,99648.14
2019-02-09T23:53:05.769Z,99649.13
2019-02-09T23:55:40.502Z,99642.19
2019-02-09T23:58:12.872Z,99653.28
